Metar Aviation Weather Data     LHBP Budapest Liszt Ferenc International Airport
Temperature
15°C Temperature
8°C Dewpoint
63% Humidity



Wind
5 KM/H
3 MPH
1 M/S
3 KTS



330°
ÉÉNY
Current Conditions

Clear Clear
Pressure 1026.92 (hPa) - 30.32 (inHg)
Visibility 6.2 (mile) - 10 (km)
Repülőtér
Airport-code LHBP

Location: Budapest Liszt Ferenc International Airport
Távolság: 14 (km)

Metar:
LHBP 081900Z 33003KT CAVOK 15/08 Q1027 NOSIG

Idő: 2020-09-08 20:00 BST